Time;durP1;ratioP1;P1;durP2;ratioP2;P2;SDS_P1;SDS_P2;PMS_P1;PMS_P2;Temp;Humidity;BMP_temperature;BMP_pressure;BME280_temperature;BME280_humidity;BME280_pressure;Samples;Min_cycle;Max_cycle;Signal;HPM_P1;HPM_P2
2022/11/28 00:01:23;;;;;;;8.32;5.35;;;;;;;;;;5048175;28;20379;-53
2022/11/28 00:10:39;;;;;;;6.18;5.22;;;;;;;;;;4987659;28;20039;-56
2022/11/28 00:13:26;;;;;;;7.90;5.40;;;;;;;;;;5017538;28;20049;-55
2022/11/28 00:19:04;;;;;;;11.65;7.18;;;;;;;;;;4967858;28;20046;-57
2022/11/28 00:21:31;;;;;;;10.18;7.68;;;;;;;;;;4968106;29;20039;-54
2022/11/28 00:33:32;;;;;;;7.80;5.72;;;;;;;;;;5010449;28;20041;-56
2022/11/28 00:36:12;;;;;;;8.02;5.22;;;;;;;;;;4988490;28;20040;-56
2022/11/28 00:38:50;;;;;;;7.50;6.32;;;;;;;;;;5030093;28;20041;-52
2022/11/28 00:41:33;;;;;;;;;;;;;;;;;;;;;
2022/11/28 00:44:26;;;;;;;6.65;4.88;;;;;;;;;;5058180;28;20072;-52
2022/11/28 00:47:01;;;;;;;7.05;5.68;;;;;;;;;;5009620;28;20077;-55
2022/11/28 00:49:44;;;;;;;7.32;5.75;;;;;;;;;;4993743;28;20077;-55
2022/11/28 00:52:21;;;;;;;8.18;5.88;;;;;;;;;;5071162;28;20063;-56
2022/11/28 00:55:13;;;;;;;5.20;4.07;;;;;;;;;;5091658;28;20032;-56
2022/11/28 00:58:02;;;;;;;7.07;6.30;;;;;;;;;;5091614;28;20039;-56
2022/11/28 01:00:35;;;;;;;6.43;5.28;;;;;;;;;;5090917;28;20033;-54
2022/11/28 01:03:28;;;;;;;6.65;5.55;;;;;;;;;;5091434;28;20024;-56
2022/11/28 01:06:13;;;;;;;5.82;5.03;;;;;;;;;;5049271;28;20037;-54
2022/11/28 01:09:14;;;;;;;7.65;5.75;;;;;;;;;;5049442;28;20028;-54
2022/11/28 01:15:03;;;;;;;6.53;5.68;;;;;;;;;;5049160;28;20028;-55
2022/11/28 01:18:10;;;;;;;6.05;5.07;;;;;;;;;;5048981;28;20030;-54
2022/11/28 01:20:47;;;;;;;6.50;5.22;;;;;;;;;;5049104;28;20515;-55
2022/11/28 01:23:46;;;;;;;7.43;5.65;;;;;;;;;;5029401;28;20037;-55
2022/11/28 01:26:29;;;;;;;7.15;5.60;;;;;;;;;;4943290;29;20044;-57
2022/11/28 01:29:09;;;;;;;7.80;6.00;;;;;;;;;;5022379;28;20034;-56
2022/11/28 01:31:51;;;;;;;9.63;6.25;;;;;;;;;;5029304;28;20115;-57
2022/11/28 01:34:23;;;;;;;7.68;6.03;;;;;;;;;;5026897;28;20041;-55
2022/11/28 01:42:44;;;;;;;7.78;5.18;;;;;;;;;;5034486;28;20047;-54
2022/11/28 01:45:51;;;;;;;7.38;5.75;;;;;;;;;;5048271;28;20080;-56
2022/11/28 01:48:52;;;;;;;7.00;5.28;;;;;;;;;;5048599;28;20518;-55
2022/11/28 01:57:28;;;;;;;6.78;5.03;;;;;;;;;;5079219;28;20092;-55
2022/11/28 02:06:23;;;;;;;9.80;7.25;;;;;;;;;;5086480;28;20028;-56
2022/11/28 02:09:18;;;;;;;7.30;5.68;;;;;;;;;;5074895;28;20174;-56
2022/11/28 02:12:12;;;;;;;10.88;5.63;;;;;;;;;;5089936;28;20092;-54
2022/11/28 02:15:38;;;;;;;;;;;;;;;;;;;;;
2022/11/28 02:18:17;;;;;;;7.75;4.43;;;;;;;;;;5044851;28;20054;-55
2022/11/28 02:24:32;;;;;;;7.95;5.82;;;;;;;;;;4971990;28;20074;-56
2022/11/28 02:27:23;;;;;;;8.20;5.53;;;;;;;;;;4988692;28;20064;-55
2022/11/28 02:30:23;;;;;;;6.10;5.50;;;;;;;;;;4971929;28;20098;-56
2022/11/28 02:33:10;;;;;;;7.45;5.97;;;;;;;;;;4986141;28;20037;-54
2022/11/28 02:36:03;;;;;;;7.75;5.32;;;;;;;;;;5047316;28;20069;-53
2022/11/28 02:42:01;;;;;;;7.60;5.65;;;;;;;;;;5047689;28;20064;-55
2022/11/28 02:44:55;;;;;;;5.68;4.70;;;;;;;;;;4996513;28;20411;-54
2022/11/28 02:50:47;;;;;;;5.18;4.65;;;;;;;;;;5061689;28;20025;-55
2022/11/28 02:53:28;;;;;;;7.55;5.15;;;;;;;;;;5030026;28;20040;-52
2022/11/28 02:56:16;;;;;;;5.85;4.50;;;;;;;;;;5068994;28;20029;-56
2022/11/28 02:59:07;;;;;;;5.70;4.40;;;;;;;;;;5069548;28;20029;-56
2022/11/28 03:05:33;;;;;;;6.10;4.50;;;;;;;;;;5039324;28;20041;-54
2022/11/28 03:08:18;;;;;;;6.43;5.22;;;;;;;;;;5069335;28;20055;-55
2022/11/28 03:11:20;;;;;;;;;;;;;;;;;;;;;
2022/11/28 03:17:04;;;;;;;6.25;4.82;;;;;;;;;;5069335;28;20109;-55
2022/11/28 03:20:12;;;;;;;;;;;;;;;;;;;;;
2022/11/28 03:26:17;;;;;;;5.63;4.28;;;;;;;;;;5027801;28;20070;-54
2022/11/28 03:29:06;;;;;;;6.03;5.50;;;;;;;;;;5048291;28;20445;-51
2022/11/28 03:32:00;;;;;;;7.27;5.63;;;;;;;;;;5027582;28;20069;-56
2022/11/28 03:34:46;;;;;;;8.38;5.78;;;;;;;;;;5026968;28;20068;-56
2022/11/28 03:37:35;;;;;;;8.10;5.95;;;;;;;;;;5027071;28;20030;-55
2022/11/28 03:40:23;;;;;;;5.97;5.30;;;;;;;;;;5027702;28;20044;-56
2022/11/28 03:43:03;;;;;;;5.45;4.53;;;;;;;;;;5026761;28;20037;-56
2022/11/28 03:45:58;;;;;;;9.38;5.40;;;;;;;;;;5046468;28;20045;-56
2022/11/28 03:48:30;;;;;;;7.50;6.38;;;;;;;;;;5046767;28;20034;-56
2022/11/28 03:54:43;;;;;;;7.80;5.00;;;;;;;;;;4981056;28;20035;-56
2022/11/28 03:57:38;;;;;;;7.67;5.23;;;;;;;;;;4988152;28;20034;-55
2022/11/28 04:00:26;;;;;;;;;;;;;;;;;;;;;
2022/11/28 04:03:14;;;;;;;8.40;5.88;;;;;;;;;;4988388;28;20069;-56
2022/11/28 04:18:38;;;;;;;;;;;;;;;;;;;;;
2022/11/28 04:21:50;;;;;;;5.35;4.85;;;;;;;;;;4987743;28;20066;-53
2022/11/28 04:30:44;;;;;;;6.83;6.03;;;;;;;;;;5065512;28;20032;-54
2022/11/28 04:33:49;;;;;;;7.18;5.80;;;;;;;;;;5074002;28;20040;-56
2022/11/28 04:36:21;;;;;;;6.57;5.35;;;;;;;;;;4973337;28;20101;-51
2022/11/28 04:42:19;;;;;;;5.82;4.85;;;;;;;;;;4966216;28;20030;-52
2022/11/28 04:51:16;;;;;;;7.07;5.20;;;;;;;;;;5023717;28;20041;-54
2022/11/28 04:54:09;;;;;;;7.97;5.35;;;;;;;;;;4948235;28;20045;-55
2022/11/28 04:56:58;;;;;;;6.78;5.90;;;;;;;;;;5024234;28;20034;-56
2022/11/28 04:59:36;;;;;;;7.85;5.13;;;;;;;;;;5020324;28;20038;-54
2022/11/28 05:08:26;;;;;;;6.65;5.82;;;;;;;;;;4992452;28;20084;-56
2022/11/28 05:11:28;;;;;;;6.90;5.60;;;;;;;;;;4972988;28;20035;-55
2022/11/28 05:14:17;;;;;;;5.95;5.35;;;;;;;;;;4973507;28;20400;-56
2022/11/28 05:16:53;;;;;;;8.87;5.17;;;;;;;;;;4990472;28;20121;-56
2022/11/28 05:19:40;;;;;;;5.47;4.72;;;;;;;;;;4994831;28;20085;-56
2022/11/28 05:22:26;;;;;;;5.72;5.13;;;;;;;;;;4995875;28;20038;-55
2022/11/28 05:25:01;;;;;;;6.85;5.68;;;;;;;;;;4996495;28;20057;-55
2022/11/28 05:27:54;;;;;;;;;;;;;;;;;;;;;
2022/11/28 05:30:46;;;;;;;7.22;6.30;;;;;;;;;;4995886;28;20427;-56
2022/11/28 05:36:19;;;;;;;6.18;4.65;;;;;;;;;;5051782;28;19905;-55
2022/11/28 05:42:07;;;;;;;8.07;5.25;;;;;;;;;;5077456;28;20157;-56
2022/11/28 05:44:57;;;;;;;8.38;5.45;;;;;;;;;;5065959;28;20053;-56
2022/11/28 05:47:32;;;;;;;5.75;4.88;;;;;;;;;;5057766;28;20459;-56
2022/11/28 05:49:58;;;;;;;6.68;4.90;;;;;;;;;;5057640;28;20086;-56
2022/11/28 05:52:56;;;;;;;;;;;;;;;;;;;;;
2022/11/28 05:55:28;;;;;;;7.50;5.35;;;;;;;;;;5057044;28;20088;-56
2022/11/28 06:07:34;;;;;;;7.47;5.88;;;;;;;;;;4957761;29;20385;-53
2022/11/28 06:10:21;;;;;;;6.28;4.88;;;;;;;;;;4939683;29;20034;-56
2022/11/28 06:13:02;;;;;;;7.88;4.82;;;;;;;;;;4940535;29;20485;-55
2022/11/28 06:15:54;;;;;;;8.52;5.30;;;;;;;;;;4955939;29;20083;-56
2022/11/28 06:18:27;;;;;;;5.97;4.60;;;;;;;;;;5054858;28;20059;-50
2022/11/28 06:21:26;;;;;;;6.85;5.30;;;;;;;;;;5055980;28;20082;-56
2022/11/28 06:27:25;;;;;;;5.57;4.70;;;;;;;;;;5052980;28;20028;-55
2022/11/28 06:33:45;;;;;;;7.78;6.18;;;;;;;;;;4974542;28;20038;-53
2022/11/28 06:39:16;;;;;;;6.63;5.18;;;;;;;;;;4974637;28;20034;-54
2022/11/28 06:42:04;;;;;;;4.97;3.88;;;;;;;;;;4973611;28;20473;-54
2022/11/28 06:44:37;;;;;;;5.20;4.35;;;;;;;;;;5057429;28;20045;-55
2022/11/28 06:47:18;;;;;;;5.70;4.85;;;;;;;;;;5035846;28;20099;-56
2022/11/28 06:50:21;;;;;;;6.70;4.45;;;;;;;;;;5052177;28;20037;-56
2022/11/28 06:52:48;;;;;;;7.10;4.38;;;;;;;;;;5049675;28;20044;-56
2022/11/28 06:55:35;;;;;;;5.40;4.45;;;;;;;;;;5056336;28;20044;-55
2022/11/28 06:58:09;;;;;;;5.38;4.28;;;;;;;;;;5055898;28;20032;-55
2022/11/28 07:00:47;;;;;;;7.32;4.93;;;;;;;;;;5036138;28;20395;-55
2022/11/28 07:03:39;;;;;;;4.90;3.58;;;;;;;;;;5038348;28;20025;-54
2022/11/28 07:06:17;;;;;;;6.03;4.32;;;;;;;;;;5001340;28;20033;-53
2022/11/28 07:11:52;;;;;;;5.10;4.15;;;;;;;;;;5041064;28;20307;-55
2022/11/28 07:14:38;;;;;;;9.13;5.18;;;;;;;;;;5055559;28;20395;-54
2022/11/28 07:23:08;;;;;;;7.85;4.88;;;;;;;;;;4993092;28;20045;-56
2022/11/28 07:25:40;;;;;;;6.65;5.10;;;;;;;;;;4992837;28;20050;-53
2022/11/28 07:28:30;;;;;;;7.43;5.72;;;;;;;;;;4993432;28;20497;-56
2022/11/28 07:31:16;;;;;;;7.03;6.20;;;;;;;;;;4994043;28;20035;-57
2022/11/28 07:34:11;;;;;;;7.80;4.88;;;;;;;;;;4991155;28;20027;-56
2022/11/28 07:36:56;;;;;;;13.02;4.47;;;;;;;;;;4969547;28;20469;-57
2022/11/28 07:42:42;;;;;;;7.38;3.67;;;;;;;;;;4992726;28;20386;-56
2022/11/28 07:45:09;;;;;;;4.05;3.63;;;;;;;;;;5007732;28;20133;-55
2022/11/28 07:47:45;;;;;;;6.65;4.97;;;;;;;;;;5012517;28;20037;-56
2022/11/28 07:50:36;;;;;;;5.63;4.53;;;;;;;;;;5031636;28;20056;-56
2022/11/28 07:53:02;;;;;;;;;;;;;;;;;;5001320;28;20036;-55
2022/11/28 07:55:48;;;;;;;6.90;3.28;;;;;;;;;;5073478;28;19904;-57
2022/11/28 07:58:42;;;;;;;4.80;4.22;;;;;;;;;;5074645;28;20401;-55
2022/11/28 08:04:44;;;;;;;;;;;;;;;;;;;;;
2022/11/28 08:07:36;;;;;;;4.90;4.15;;;;;;;;;;5067793;28;20132;-54
2022/11/28 08:10:31;;;;;;;11.57;5.15;;;;;;;;;;5056548;28;20082;-55
2022/11/28 08:13:18;;;;;;;8.43;4.90;;;;;;;;;;5056626;28;20097;-55
2022/11/28 08:15:58;;;;;;;10.32;4.18;;;;;;;;;;5074487;28;20035;-57
2022/11/28 08:18:32;;;;;;;5.70;3.70;;;;;;;;;;5032691;28;20037;-55
2022/11/28 08:24:12;;;;;;;5.72;4.40;;;;;;;;;;5039508;28;20112;-57
2022/11/28 08:27:02;;;;;;;6.05;3.90;;;;;;;;;;5015180;28;20033;-55
2022/11/28 08:32:37;;;;;;;12.20;3.90;;;;;;;;;;5029662;28;20052;-54
2022/11/28 08:35:19;;;;;;;5.00;3.92;;;;;;;;;;5031964;28;20025;-56
2022/11/28 08:43:49;;;;;;;5.32;3.35;;;;;;;;;;5032043;28;20079;-55
2022/11/28 08:46:23;;;;;;;8.35;4.47;;;;;;;;;;5031525;28;20052;-54
2022/11/28 08:52:12;;;;;;;5.82;5.22;;;;;;;;;;5072035;28;20040;-56
2022/11/28 08:58:12;;;;;;;7.93;4.38;;;;;;;;;;5054287;28;20039;-56
2022/11/28 09:00:56;;;;;;;6.95;4.78;;;;;;;;;;5078067;28;20028;-57
2022/11/28 09:03:43;;;;;;;5.85;4.53;;;;;;;;;;5035448;28;20078;-57
2022/11/28 09:12:53;;;;;;;13.73;5.60;;;;;;;;;;5053564;28;20040;-57
2022/11/28 09:15:53;;;;;;;8.05;5.13;;;;;;;;;;5057604;28;20028;-57
2022/11/28 09:18:22;;;;;;;8.63;5.47;;;;;;;;;;5054569;28;20029;-56
2022/11/28 09:21:24;;;;;;;7.30;5.13;;;;;;;;;;5077646;28;20454;-56
2022/11/28 09:24:14;;;;;;;6.47;5.43;;;;;;;;;;5076915;28;20025;-55
2022/11/28 09:26:41;;;;;;;;;;;;;;;;;;5077640;28;20366;-56
2022/11/28 09:32:41;;;;;;;8.02;5.88;;;;;;;;;;5077362;28;20039;-58
2022/11/28 09:35:32;;;;;;;6.15;5.35;;;;;;;;;;5072783;28;20470;-58
2022/11/28 09:38:14;;;;;;;;;;;;;;;;;;;;;
2022/11/28 09:40:47;;;;;;;6.18;5.53;;;;;;;;;;5061737;28;20039;-58
2022/11/28 09:43:30;;;;;;;4.70;3.95;;;;;;;;;;5071738;28;20029;-57
2022/11/28 09:52:15;;;;;;;;;;;;;;;;;;;;;
2022/11/28 09:58:02;;;;;;;;;;;;;;;;;;4991744;28;20401;-57
2022/11/28 10:03:53;;;;;;;7.40;5.50;;;;;;;;;;5039113;28;20582;-58
2022/11/28 10:07:00;;;;;;;10.20;5.30;;;;;;;;;;5041184;28;20159;-58
2022/11/28 10:09:46;;;;;;;8.55;5.60;;;;;;;;;;5058633;28;20073;-58
2022/11/28 10:12:40;;;;;;;7.57;5.45;;;;;;;;;;5077353;28;20040;-56
2022/11/28 10:15:21;;;;;;;9.10;5.30;;;;;;;;;;5076725;28;20025;-58
2022/11/28 10:17:54;;;;;;;15.05;6.68;;;;;;;;;;5058535;28;20031;-58
2022/11/28 10:20:44;;;;;;;8.70;6.38;;;;;;;;;;5076497;28;20378;-57
2022/11/28 10:23:26;;;;;;;8.82;6.35;;;;;;;;;;5077080;28;20024;-57
2022/11/28 10:33:13;;;;;;;7.78;5.90;;;;;;;;;;5033764;28;20503;-58
2022/11/28 10:35:43;;;;;;;8.05;6.28;;;;;;;;;;5031251;28;20029;-58
2022/11/28 10:38:33;;;;;;;7.90;5.40;;;;;;;;;;5034310;28;20037;-58
2022/11/28 10:41:17;;;;;;;7.53;5.95;;;;;;;;;;5014688;28;20484;-56
2022/11/28 10:47:27;;;;;;;9.18;5.13;;;;;;;;;;5020385;28;20046;-58
2022/11/28 10:50:25;;;;;;;9.43;5.38;;;;;;;;;;4967539;28;20092;-58
2022/11/28 10:53:27;;;;;;;6.65;5.63;;;;;;;;;;5032898;28;20045;-57
2022/11/28 10:56:19;;;;;;;7.32;6.25;;;;;;;;;;5031722;28;20056;-58
2022/11/28 11:04:56;;;;;;;7.35;5.80;;;;;;;;;;4974259;28;20039;-57
2022/11/28 11:07:34;;;;;;;10.27;5.68;;;;;;;;;;4957925;28;20501;-55
2022/11/28 11:10:45;;;;;;;7.75;5.63;;;;;;;;;;4974402;28;20030;-54
2022/11/28 11:13:48;;;;;;;;;;;;;;;;;;;;;
2022/11/28 11:16:35;;;;;;;6.68;5.70;;;;;;;;;;4973382;28;20026;-57
2022/11/28 11:19:31;;;;;;;;;;;;;;;;;;;;;
2022/11/28 11:25:31;;;;;;;10.07;8.27;;;;;;;;;;5057313;28;20097;-56
2022/11/28 11:28:07;;;;;;;9.32;6.22;;;;;;;;;;5074102;28;20024;-57
2022/11/28 11:31:01;;;;;;;9.82;6.40;;;;;;;;;;5056460;28;20086;-56
2022/11/28 11:34:02;;;;;;;;;;;;;;;;;;;;;
2022/11/28 11:36:49;;;;;;;9.55;7.38;;;;;;;;;;5074883;28;20031;-56
2022/11/28 11:39:27;;;;;;;12.18;7.85;;;;;;;;;;5073961;28;20489;-55
2022/11/28 11:42:25;;;;;;;8.77;7.13;;;;;;;;;;5074906;28;20051;-55
2022/11/28 11:48:05;;;;;;;8.07;6.05;;;;;;;;;;4973716;28;20041;-56
2022/11/28 11:51:01;;;;;;;10.95;7.20;;;;;;;;;;4973124;28;20489;-56
2022/11/28 11:57:11;;;;;;;9.50;7.22;;;;;;;;;;4993348;28;20152;-57
2022/11/28 12:03:06;;;;;;;10.50;6.55;;;;;;;;;;5009419;28;20172;-57
2022/11/28 12:05:52;;;;;;;11.93;6.70;;;;;;;;;;4992594;28;20034;-57
2022/11/28 12:08:32;;;;;;;10.88;7.35;;;;;;;;;;4993364;28;20096;-57
2022/11/28 12:11:22;;;;;;;9.55;7.72;;;;;;;;;;4953812;29;20413;-55
2022/11/28 12:13:59;;;;;;;10.18;6.90;;;;;;;;;;4953656;29;20031;-55
2022/11/28 12:19:50;;;;;;;12.05;8.13;;;;;;;;;;4964917;29;20025;-56
2022/11/28 12:22:51;;;;;;;9.85;7.53;;;;;;;;;;4984379;28;20107;-53
2022/11/28 12:25:41;;;;;;;9.13;6.85;;;;;;;;;;4987939;28;20065;-57
2022/11/28 12:28:34;;;;;;;13.07;6.75;;;;;;;;;;4990525;28;20105;-56
2022/11/28 12:31:38;;;;;;;;;;;;;;;;;;;;;
2022/11/28 12:34:52;;;;;;;6.70;5.45;;;;;;;;;;5029125;28;20057;-57
2022/11/28 12:40:52;;;;;;;7.32;6.20;;;;;;;;;;5010427;28;20119;-57
2022/11/28 12:47:02;;;;;;;;;;;;;;;;;;;;;
2022/11/28 12:55:24;;;;;;;6.93;5.30;;;;;;;;;;5072122;28;20051;-57
2022/11/28 12:58:15;;;;;;;9.43;5.65;;;;;;;;;;5072277;28;20025;-54
2022/11/28 13:01:10;;;;;;;7.20;4.53;;;;;;;;;;5072036;28;20099;-56
2022/11/28 13:04:08;;;;;;;5.90;5.20;;;;;;;;;;5071623;28;20025;-57
2022/11/28 13:07:12;;;;;;;7.53;5.15;;;;;;;;;;5071766;28;20093;-57
2022/11/28 13:13:26;;;;;;;7.25;6.30;;;;;;;;;;5064609;28;20045;-57
2022/11/28 13:19:39;;;;;;;8.18;5.93;;;;;;;;;;5034071;28;20056;-57
2022/11/28 13:22:30;;;;;;;6.68;5.75;;;;;;;;;;5070131;28;20055;-57
2022/11/28 13:25:31;;;;;;;8.23;5.63;;;;;;;;;;5009387;28;20117;-55
2022/11/28 13:28:22;;;;;;;9.05;6.35;;;;;;;;;;4988950;28;20037;-57
2022/11/28 13:31:09;;;;;;;11.02;6.75;;;;;;;;;;4993182;28;20027;-57
2022/11/28 13:34:23;;;;;;;10.13;6.70;;;;;;;;;;4990908;28;20046;-56
2022/11/28 13:40:13;;;;;;;10.23;8.10;;;;;;;;;;4950904;29;20076;-57
2022/11/28 13:46:12;;;;;;;9.13;6.82;;;;;;;;;;5016423;28;20061;-57
2022/11/28 13:49:01;;;;;;;14.02;9.18;;;;;;;;;;5029938;28;20034;-56
2022/11/28 13:51:34;;;;;;;9.20;8.25;;;;;;;;;;5029704;28;20049;-54
2022/11/28 13:57:26;;;;;;;11.43;8.05;;;;;;;;;;5073120;28;20126;-57
2022/11/28 14:00:13;;;;;;;11.27;7.00;;;;;;;;;;5091061;28;20025;-57
2022/11/28 14:03:05;;;;;;;12.63;7.60;;;;;;;;;;5091260;28;20024;-56
2022/11/28 14:08:58;;;;;;;17.75;12.00;;;;;;;;;;5090412;28;20033;-55
2022/11/28 14:11:45;;;;;;;8.40;7.07;;;;;;;;;;5091152;28;20080;-56
2022/11/28 14:14:42;;;;;;;13.10;8.90;;;;;;;;;;5090491;28;20347;-57
2022/11/28 14:17:30;;;;;;;10.25;8.48;;;;;;;;;;5088427;28;20040;-53
2022/11/28 14:20:20;;;;;;;8.65;7.32;;;;;;;;;;5071418;28;20036;-57
2022/11/28 14:23:14;;;;;;;10.30;8.00;;;;;;;;;;5090424;28;20044;-56
2022/11/28 14:26:31;;;;;;;9.88;8.32;;;;;;;;;;5089996;28;20028;-55
2022/11/28 14:32:41;;;;;;;12.38;9.25;;;;;;;;;;5081352;28;20043;-55
2022/11/28 14:35:39;;;;;;;12.02;8.52;;;;;;;;;;5049127;28;20057;-56
2022/11/28 14:38:34;;;;;;;11.57;9.05;;;;;;;;;;5048424;28;20038;-57
2022/11/28 14:47:56;;;;;;;19.20;14.65;;;;;;;;;;5038592;28;20060;-56
2022/11/28 14:50:28;;;;;;;12.10;9.70;;;;;;;;;;5044953;28;20041;-57
2022/11/28 14:53:21;;;;;;;8.40;7.32;;;;;;;;;;5048598;28;20519;-55
2022/11/28 14:56:10;;;;;;;11.27;7.63;;;;;;;;;;5030962;28;20038;-55
2022/11/28 14:59:01;;;;;;;9.00;8.10;;;;;;;;;;5048656;28;20029;-57
2022/11/28 15:01:42;;;;;;;14.95;8.20;;;;;;;;;;5047885;28;20042;-57
2022/11/28 15:04:35;;;;;;;8.13;6.40;;;;;;;;;;5030594;28;20034;-56
2022/11/28 15:07:21;;;;;;;13.50;7.72;;;;;;;;;;5066196;28;20041;-58
2022/11/28 15:10:08;;;;;;;7.53;6.43;;;;;;;;;;5065941;28;20029;-57
2022/11/28 15:16:13;;;;;;;10.50;8.80;;;;;;;;;;5047678;28;20061;-57
2022/11/28 15:18:55;;;;;;;8.13;6.55;;;;;;;;;;5048149;28;20113;-55
2022/11/28 15:22:02;;;;;;;8.20;6.60;;;;;;;;;;5047856;28;20063;-57
2022/11/28 15:25:10;;;;;;;9.48;7.47;;;;;;;;;;5042041;28;20068;-54
2022/11/28 15:27:54;;;;;;;8.77;7.03;;;;;;;;;;5061554;28;20096;-55
2022/11/28 15:30:25;;;;;;;7.10;6.10;;;;;;;;;;5051151;28;20044;-56
2022/11/28 15:33:19;;;;;;;12.48;7.45;;;;;;;;;;5068522;28;20033;-56
2022/11/28 15:36:19;;;;;;;;;;;;;;;;;;;;;
2022/11/28 15:38:58;;;;;;;11.13;6.72;;;;;;;;;;5034458;28;20072;-54
2022/11/28 15:41:40;;;;;;;9.30;7.55;;;;;;;;;;5062869;28;20090;-57
2022/11/28 15:44:39;;;;;;;10.30;7.53;;;;;;;;;;5069266;28;20021;-56
2022/11/28 15:54:21;;;;;;;8.48;7.25;;;;;;;;;;5007549;28;20045;-53
2022/11/28 15:57:15;;;;;;;8.93;6.68;;;;;;;;;;5007649;28;20030;-57
2022/11/28 16:03:08;;;;;;;;;;;;;;;;;;4911693;29;20041;-56
2022/11/28 16:05:54;;;;;;;7.78;6.72;;;;;;;;;;4894323;29;19907;-56
2022/11/28 16:11:53;;;;;;;11.30;9.30;;;;;;;;;;5007754;28;20088;-56
2022/11/28 16:15:02;;;;;;;;;;;;;;;;;;;;;
2022/11/28 16:20:51;;;;;;;19.52;14.77;;;;;;;;;;5007560;28;20130;-53
2022/11/28 16:23:48;;;;;;;15.95;12.00;;;;;;;;;;5008138;28;20040;-57
2022/11/28 16:26:45;;;;;;;13.07;8.60;;;;;;;;;;5047205;28;20035;-54
2022/11/28 16:32:59;;;;;;;10.27;7.47;;;;;;;;;;5067513;28;20486;-57
2022/11/28 16:35:51;;;;;;;12.05;7.47;;;;;;;;;;4988164;28;20027;-56
2022/11/28 16:39:06;;;;;;;;;;;;;;;;;;;;;
2022/11/28 16:41:39;;;;;;;11.13;7.57;;;;;;;;;;5088657;28;20055;-55
2022/11/28 16:47:23;;;;;;;9.93;8.30;;;;;;;;;;5045947;28;20080;-54
2022/11/28 16:50:26;;;;;;;;;;;;;;;;;;;;;
2022/11/28 16:56:24;;;;;;;18.35;11.48;;;;;;;;;;5044742;28;20125;-57
2022/11/28 17:02:37;;;;;;;16.27;9.50;;;;;;;;;;5083458;28;20024;-54
2022/11/28 17:08:26;;;;;;;14.02;9.68;;;;;;;;;;5065459;28;20033;-57
2022/11/28 17:11:05;;;;;;;16.13;9.68;;;;;;;;;;5086553;28;20043;-56
2022/11/28 17:13:40;;;;;;;12.93;9.27;;;;;;;;;;5078844;28;20097;-56
2022/11/28 17:16:32;;;;;;;11.52;8.32;;;;;;;;;;5053321;28;20032;-54
2022/11/28 17:19:26;;;;;;;10.00;8.15;;;;;;;;;;5078006;28;20028;-57
2022/11/28 17:22:24;;;;;;;14.10;10.57;;;;;;;;;;5077519;28;20481;-57
2022/11/28 17:25:28;;;;;;;14.35;9.90;;;;;;;;;;5077865;28;20036;-58
2022/11/28 17:46:10;;;;;;;12.57;7.45;;;;;;;;;;5010819;28;20026;-57
2022/11/28 17:52:13;;;;;;;16.73;11.73;;;;;;;;;;5014495;28;20085;-53
2022/11/28 17:55:20;;;;;;;;;;;;;;;;;;;;;
2022/11/28 18:01:08;;;;;;;20.40;14.32;;;;;;;;;;5070863;28;20494;-57
2022/11/28 18:07:08;;;;;;;15.25;12.43;;;;;;;;;;5042218;28;20486;-58
2022/11/28 18:15:56;;;;;;;8.80;6.57;;;;;;;;;;4987170;28;20508;-57
2022/11/28 18:22:07;;;;;;;9.50;6.40;;;;;;;;;;5034064;28;20029;-55
2022/11/28 18:34:29;;;;;;;9.23;7.07;;;;;;;;;;5033756;28;20046;-57
2022/11/28 18:37:02;;;;;;;13.45;9.02;;;;;;;;;;5076177;28;20036;-56
2022/11/28 18:39:46;;;;;;;10.68;8.68;;;;;;;;;;5076589;28;20107;-55
2022/11/28 18:42:35;;;;;;;14.27;12.80;;;;;;;;;;5041037;28;20481;-57
2022/11/28 18:51:22;;;;;;;19.88;10.70;;;;;;;;;;5023591;28;20041;-55
2022/11/28 18:53:58;;;;;;;13.70;9.45;;;;;;;;;;5052614;28;20044;-56
2022/11/28 18:59:39;;;;;;;14.18;9.63;;;;;;;;;;4974299;28;20034;-57
2022/11/28 19:05:26;;;;;;;11.05;9.48;;;;;;;;;;5049733;28;20029;-55
2022/11/28 19:11:13;;;;;;;;;;;;;;;;;;;;;
2022/11/28 19:14:09;;;;;;;15.98;10.27;;;;;;;;;;5035209;28;20136;-53
2022/11/28 19:16:55;;;;;;;13.27;8.93;;;;;;;;;;5055088;28;20064;-57
2022/11/28 19:19:34;;;;;;;11.70;9.95;;;;;;;;;;5037349;28;20048;-55
2022/11/28 19:22:06;;;;;;;11.00;9.90;;;;;;;;;;5053549;28;20497;-57
2022/11/28 19:25:04;;;;;;;12.02;9.25;;;;;;;;;;5055892;28;20029;-58
2022/11/28 19:28:03;;;;;;;;;;;;;;;;;;;;;
2022/11/28 19:31:02;;;;;;;13.63;10.40;;;;;;;;;;5049663;28;20356;-57
2022/11/28 19:34:09;;;;;;;13.27;10.73;;;;;;;;;;5032524;28;20492;-56
2022/11/28 19:37:16;;;;;;;;;;;;;;;;;;;;;
2022/11/28 19:40:20;;;;;;;14.50;9.65;;;;;;;;;;4967328;28;20432;-55
2022/11/28 19:43:11;;;;;;;11.15;9.93;;;;;;;;;;4970028;28;20026;-56
2022/11/28 19:45:56;;;;;;;14.10;10.77;;;;;;;;;;4988740;28;20090;-55
2022/11/28 19:51:23;;;;;;;13.68;10.07;;;;;;;;;;5048264;28;20128;-57
2022/11/28 19:54:10;;;;;;;;;;;;;;;;;;;;;
2022/11/28 19:57:00;;;;;;;12.70;10.52;;;;;;;;;;5051795;28;20426;-57
2022/11/28 20:00:10;;;;;;;;;;;;;;;;;;;;;
2022/11/28 20:02:36;;;;;;;13.82;9.85;;;;;;;;;;5070214;28;20115;-57
2022/11/28 20:05:37;;;;;;;12.00;9.85;;;;;;;;;;5074237;28;20450;-56
2022/11/28 20:08:27;;;;;;;11.38;9.88;;;;;;;;;;5032543;28;20037;-57
2022/11/28 20:11:32;;;;;;;14.93;10.53;;;;;;;;;;5015921;28;20029;-57
2022/11/28 20:14:45;;;;;;;13.35;9.95;;;;;;;;;;5031736;28;20638;-58
2022/11/28 20:17:24;;;;;;;12.80;8.85;;;;;;;;;;4938113;29;20043;-56
2022/11/28 20:20:00;;;;;;;14.60;10.18;;;;;;;;;;4938203;29;20058;-56
2022/11/28 20:26:16;;;;;;;;;;;;;;;;;;;;;
2022/11/28 20:28:49;;;;;;;11.25;9.02;;;;;;;;;;4954239;29;20046;-58
2022/11/28 20:31:40;;;;;;;12.15;9.48;;;;;;;;;;4941846;28;20045;-57
2022/11/28 20:37:46;;;;;;;12.25;10.45;;;;;;;;;;4992311;28;20065;-56
2022/11/28 20:40:36;;;;;;;15.13;9.48;;;;;;;;;;4993100;28;20117;-56
2022/11/28 20:46:22;;;;;;;13.55;10.35;;;;;;;;;;4992740;28;20445;-57
2022/11/28 20:52:08;;;;;;;11.88;9.20;;;;;;;;;;4996841;28;20049;-58
2022/11/28 21:03:49;;;;;;;10.65;8.40;;;;;;;;;;5054900;28;20033;-56
2022/11/28 21:06:21;;;;;;;9.95;7.07;;;;;;;;;;5039656;28;20123;-58
2022/11/28 21:09:28;;;;;;;8.93;7.40;;;;;;;;;;5023686;28;20033;-58
2022/11/28 21:12:12;;;;;;;10.70;8.75;;;;;;;;;;4976365;28;20035;-55
2022/11/28 21:14:53;;;;;;;10.52;7.80;;;;;;;;;;5002518;28;20037;-57
2022/11/28 21:20:27;;;;;;;9.48;8.25;;;;;;;;;;5034185;28;20059;-58
2022/11/28 21:23:14;;;;;;;11.70;9.20;;;;;;;;;;5057358;28;20495;-56
2022/11/28 21:25:46;;;;;;;12.52;9.38;;;;;;;;;;4977051;28;20082;-58
2022/11/28 21:28:53;;;;;;;12.30;8.85;;;;;;;;;;5051147;28;20425;-58
2022/11/28 21:31:54;;;;;;;10.75;9.20;;;;;;;;;;4960507;28;20043;-57
2022/11/28 21:38:04;;;;;;;10.93;8.75;;;;;;;;;;4995771;28;20033;-57
2022/11/28 21:40:52;;;;;;;9.48;8.45;;;;;;;;;;4996552;28;20047;-56
2022/11/28 21:43:32;;;;;;;11.75;10.32;;;;;;;;;;4985605;28;20096;-54
2022/11/28 21:46:15;;;;;;;11.75;9.30;;;;;;;;;;4995785;28;20337;-56
2022/11/28 21:49:04;;;;;;;13.57;9.70;;;;;;;;;;5026436;28;20106;-56
2022/11/28 21:51:39;;;;;;;13.98;9.88;;;;;;;;;;5058162;28;20037;-56
2022/11/28 21:54:18;;;;;;;12.07;10.30;;;;;;;;;;5076762;28;20537;-53
2022/11/28 21:57:20;;;;;;;15.45;10.65;;;;;;;;;;5034154;28;20384;-58
2022/11/28 22:00:07;;;;;;;12.85;9.45;;;;;;;;;;5033906;28;20033;-55
2022/11/28 22:03:13;;;;;;;15.70;11.43;;;;;;;;;;5047131;28;20037;-54
2022/11/28 22:05:58;;;;;;;13.40;10.88;;;;;;;;;;5045985;28;20033;-54
2022/11/28 22:08:36;;;;;;;11.00;8.65;;;;;;;;;;5048094;28;20041;-56
2022/11/28 22:20:18;;;;;;;16.60;9.43;;;;;;;;;;5038113;28;20064;-58
2022/11/28 22:26:00;;;;;;;15.23;10.75;;;;;;;;;;5007821;28;20097;-55
2022/11/28 22:29:08;;;;;;;13.50;9.82;;;;;;;;;;5080899;28;20051;-54
2022/11/28 22:32:03;;;;;;;11.57;8.68;;;;;;;;;;5089558;28;20029;-56
2022/11/28 22:34:57;;;;;;;12.77;9.27;;;;;;;;;;5070700;28;20075;-56
2022/11/28 22:53:11;;;;;;;11.40;8.43;;;;;;;;;;5069355;28;20044;-56
2022/11/28 22:55:52;;;;;;;12.60;8.57;;;;;;;;;;5049918;28;20068;-53
2022/11/28 22:58:23;;;;;;;10.73;8.93;;;;;;;;;;5069518;28;20067;-52
2022/11/28 23:01:05;;;;;;;12.57;8.60;;;;;;;;;;5068787;28;20035;-53
2022/11/28 23:03:52;;;;;;;10.45;8.18;;;;;;;;;;5068618;28;20080;-55
2022/11/28 23:09:40;;;;;;;10.65;8.07;;;;;;;;;;5068824;28;20043;-54
2022/11/28 23:12:07;;;;;;;9.00;7.53;;;;;;;;;;5067986;28;20079;-55
2022/11/28 23:14:52;;;;;;;11.85;9.07;;;;;;;;;;5069089;28;20025;-55
2022/11/28 23:17:46;;;;;;;10.50;8.20;;;;;;;;;;5068670;28;20063;-56
2022/11/28 23:26:29;;;;;;;9.70;8.25;;;;;;;;;;5068180;28;20032;-53
2022/11/28 23:29:14;;;;;;;9.98;8.00;;;;;;;;;;5068758;28;20116;-55
2022/11/28 23:31:59;;;;;;;10.05;8.70;;;;;;;;;;5039597;28;20041;-57
2022/11/28 23:35:05;;;;;;;;;;;;;;;;;;;;;
2022/11/28 23:38:02;;;;;;;11.02;7.30;;;;;;;;;;5063161;28;20057;-56
2022/11/28 23:40:51;;;;;;;;;;;;;;;;;;;;;
2022/11/28 23:43:37;;;;;;;12.65;8.20;;;;;;;;;;4966639;29;20118;-57
2022/11/28 23:46:19;;;;;;;10.85;8.85;;;;;;;;;;5068241;28;20025;-54
2022/11/28 23:48:56;;;;;;;12.27;7.75;;;;;;;;;;5071763;28;20550;-57
2022/11/28 23:55:01;;;;;;;9.18;8.05;;;;;;;;;;5068085;28;20041;-56
2022/11/28 23:58:02;;;;;;;12.77;9.05;;;;;;;;;;5050209;28;20048;-55
